• Join FlightAware (Why Join?)
  • Login
  • US Flag 
04:51AM EDT


 

Airport Tracker/Info


-or-


 

Live Flight TrackerFlight Track Log ✈ KAP5 ✈ 26-Aug-2013 ✈ KALB - KBOS

Flight Track Log - Related Links

Times and Time Zones

All times are in EDT time to prevent confusion due to time zone crossing. See the KAP5 flight status page for this flight to view local times or setup timezone preferences in your user account.

Time Position Orientation Groundspeed Altitude Reporting Facility
EDT Latitude Longitude Course Direction KTS MPH feet Rate Location/Type
02:55PM 42.7278 -73.8081 122° Southeast 97 112 800  Level Boston Center
02:56PM 42.7136 -73.7767 122° Southeast 118 136 1,300 420 Climbing Boston Center
02:57PM 42.7308 -73.7317 62° Northeast 129 148 1,800 480 Climbing Boston Center
02:58PM 42.7500 -73.6786 64° Northeast 133 153 2,400 480 Climbing Boston Center
02:59PM 42.7608 -73.6364 71° East 130 150 2,900 540 Climbing Boston Center
03:00PM 42.7656 -73.5883 82° East 134 154 3,500 540 Climbing Boston Center
03:01PM 42.7681 -73.5375 86° East 141 162 4,000 420 Climbing Boston Center
03:02PM 42.7728 -73.4808 84° East 148 170 4,400 540 Climbing Boston Center
03:04PM 42.7778 -73.3989 85° East 159 183 5,400 600 Climbing Boston Center
03:05PM 42.7719 -73.3367 97° East 154 177 5,900 540 Climbing Boston Center
03:06PM 42.7661 -73.2914 100° East 149 171 6,500 540 Climbing Boston Center
03:07PM 42.7561 -73.2289 102° East 139 160 7,000 240 Climbing Boston Center
03:08PM 42.7419 -73.1781 111° Southeast 152 175 7,100  Climbing Boston Center
03:09PM 42.7319 -73.0986 100° East 173 199 7,000 -60 Descending Boston Center
03:10PM 42.7219 -73.0392 103° East 181 208 7,000  Level Boston Center
03:11PM 42.7139 -72.9656 98° East 181 208 7,000  Level Boston Center
03:12PM 42.6994 -72.9061 108° East 181 208 7,000  Level Boston Center
03:13PM 42.6872 -72.8411 104° East 181 208 7,000  Level Boston Center
03:14PM 42.6772 -72.7761 102° East 181 208 7,000  Level Boston Center
03:15PM 42.6647 -72.7139 105° East 181 208 7,000  Level Boston Center
03:16PM 42.6525 -72.6517 105° East 181 208 7,000  Level Boston Center
03:17PM 42.6419 -72.5842 102° East 176 203 7,000  Level Boston Center
03:18PM 42.6297 -72.5192 104° East 176 203 7,000  Level Boston Center
03:19PM 42.6192 -72.4542 102° East 176 203 7,000  Level Boston Center
03:20PM 42.6067 -72.3892 105° East 176 203 7,000  Level Boston Center
03:21PM 42.5942 -72.3272 105° East 176 203 7,000  Level Boston Center
03:22PM 42.5817 -72.2539 103° East 182 209 7,000  Level Boston Center
03:23PM 42.5711 -72.1947 104° East 184 212 7,000  Level Boston Center
03:24PM 42.5564 -72.1244 106° East 178 205 7,000  Level Boston Center
03:25PM 42.5478 -72.0653 101° East 173 199 7,000  Level Boston Center
03:26PM 42.5392 -71.9950 99° East 173 199 7,000  Level Boston Center
03:27PM 42.5347 -71.9358 96° East 173 199 7,000  Level Boston Center
03:28PM 42.5261 -71.8625 99° East 179 206 7,000  Level Boston Center
03:29PM 42.5217 -71.7978 95° East 185 213 7,000  Level Boston Center
03:30PM 42.5147 -71.7189 97° East 185 213 7,000  Level Boston Center
03:31PM 42.5081 -71.6572 98° East 185 213 7,000  Level Boston Center
03:32PM 42.5014 -71.5811 97° East 185 213 7,000 -120 Level Boston Center
03:33PM 42.4947 -71.5136 98° East 186 214 6,800 -540 Descending Boston Center
03:34PM 42.4897 -71.4292 95° East 201 231 6,000 -660 Descending Boston Center
03:35PM 42.4869 -71.3561 93° East 206 237 5,500 480 Descending Boston Center
03:36PM 42.4881 -71.2689 89° East 206 237 7,000 -720 Climbing Boston Center
03:37PM 42.4917 -71.2039 86° East 206 237 4,100 -1,860 Descending Boston Center
03:38PM 42.4950 -71.1250 87° East 193 222 3,300 -720 Descending Boston Center
03:39PM 42.4983 -71.0631 86° East 188 216 2,700 -780 Descending Boston Center
03:40PM 42.4500 -70.9833 129° Southeast 171 197 1,600 -780 Descending KA90
03:41PM 42.4167 -70.9833 180° South 141 162 900 -720 Descending KA90
03:42PM 42.3833 -71.0000 200° South 131 151 300 -660 Descending KA90
03:44PM 42.3630 -71.0064 204° Southwest  Level Estimated